createdAt,value
2022-08-09T00:00:06.120Z,0.00
2022-08-09T00:01:01.850Z,0.00
2022-08-09T00:02:01.858Z,0.00
2022-08-09T00:03:01.788Z,0.00
2022-08-09T00:04:10.814Z,0.00
2022-08-09T00:06:15.267Z,0.00
2022-08-09T00:06:18.224Z,0.00
2022-08-09T00:07:02.745Z,0.00
2022-08-09T00:08:01.734Z,0.00
2022-08-09T00:09:01.723Z,0.00
2022-08-09T00:10:01.713Z,0.00
2022-08-09T00:11:05.675Z,0.00
2022-08-09T00:12:03.575Z,0.00
2022-08-09T00:13:01.679Z,0.00
2022-08-09T00:14:01.670Z,0.00
2022-08-09T00:15:06.665Z,0.00
2022-08-09T00:16:03.117Z,0.00
2022-08-09T00:17:01.637Z,0.00
2022-08-09T00:18:07.675Z,0.00
2022-08-09T00:19:02.613Z,0.00
2022-08-09T00:20:02.602Z,0.00
2022-08-09T00:21:01.592Z,0.00
2022-08-09T00:22:01.598Z,0.00
2022-08-09T00:23:08.382Z,0.00
2022-08-09T00:24:02.559Z,0.00
2022-08-09T00:25:01.552Z,0.00
2022-08-09T00:26:05.000Z,0.00
2022-08-09T00:27:01.566Z,0.00
2022-08-09T00:28:04.096Z,0.00
2022-08-09T00:29:01.533Z,0.00
2022-08-09T00:30:23.551Z,0.00
2022-08-09T00:31:09.201Z,0.00
2022-08-09T00:32:02.805Z,0.00
2022-08-09T00:33:01.463Z,0.00
2022-08-09T00:34:01.483Z,0.00
2022-08-09T00:35:01.441Z,0.00
2022-08-09T00:36:01.431Z,0.00
2022-08-09T00:37:01.419Z,0.00
2022-08-09T00:38:01.410Z,0.00
2022-08-09T00:39:01.401Z,0.00
2022-08-09T00:40:12.112Z,0.00
2022-08-09T00:41:02.447Z,0.00
2022-08-09T00:44:14.883Z,0.00
2022-08-09T00:44:15.001Z,0.00
2022-08-09T00:44:19.391Z,0.00
2022-08-09T00:45:14.759Z,0.00
2022-08-09T00:46:02.322Z,0.00
2022-08-09T00:47:05.152Z,0.00
2022-08-09T00:48:01.299Z,0.00
2022-08-09T00:49:01.289Z,0.00
2022-08-09T00:50:01.421Z,0.00
2022-08-09T00:51:01.274Z,0.00
2022-08-09T00:52:05.502Z,0.00
2022-08-09T00:53:10.418Z,0.00
2022-08-09T00:54:02.235Z,0.00
2022-08-09T00:55:01.415Z,0.00
2022-08-09T00:56:03.991Z,0.00
2022-08-09T00:57:01.218Z,0.00
2022-08-09T00:58:01.191Z,0.00
2022-08-09T00:59:01.179Z,0.00
2022-08-09T01:00:03.009Z,0.00
2022-08-09T01:01:01.216Z,0.00
2022-08-09T01:02:01.204Z,0.00
2022-08-09T01:03:01.143Z,0.00
2022-08-09T01:04:01.127Z,0.00
2022-08-09T01:05:01.115Z,0.00
2022-08-09T01:06:03.948Z,0.00
2022-08-09T01:07:02.095Z,0.00
2022-08-09T01:08:01.709Z,0.00
2022-08-09T01:09:01.871Z,0.00
2022-08-09T01:10:01.061Z,0.00
2022-08-09T01:11:01.053Z,0.00
2022-08-09T01:12:01.045Z,0.00
2022-08-09T01:13:01.029Z,0.00
2022-08-09T01:14:01.833Z,0.00
2022-08-09T01:15:01.131Z,0.00
2022-08-09T01:16:01.997Z,0.00
2022-08-09T01:17:00.985Z,0.00
2022-08-09T01:18:00.977Z,0.00
2022-08-09T01:19:02.055Z,0.00
2022-08-09T01:20:02.721Z,0.00
2022-08-09T01:21:00.950Z,0.00
2022-08-09T01:22:00.931Z,0.00
2022-08-09T01:23:00.920Z,0.00
2022-08-09T01:24:04.919Z,0.00
2022-08-09T01:25:00.923Z,0.00
2022-08-09T01:26:00.886Z,0.00
2022-08-09T01:27:00.900Z,0.00
2022-08-09T01:28:00.865Z,0.00
2022-08-09T01:29:00.858Z,0.00
2022-08-09T01:30:00.869Z,0.00
2022-08-09T01:31:00.833Z,0.00
2022-08-09T01:32:32.675Z,0.00
2022-08-09T01:33:01.827Z,0.00
2022-08-09T01:34:00.801Z,0.00
2022-08-09T01:35:00.791Z,0.00
2022-08-09T01:36:01.780Z,0.00
2022-08-09T01:37:00.767Z,0.00
2022-08-09T01:38:07.772Z,0.00
2022-08-09T01:39:01.941Z,0.00
2022-08-09T01:40:00.779Z,0.00
2022-08-09T01:41:05.369Z,0.00
2022-08-09T01:42:05.195Z,0.00
2022-08-09T01:43:01.701Z,0.00
2022-08-09T01:44:00.691Z,0.00
2022-08-09T01:45:00.710Z,0.00
2022-08-09T01:46:00.670Z,0.00
2022-08-09T01:47:00.659Z,0.00
2022-08-09T01:48:00.648Z,0.00
2022-08-09T01:49:09.586Z,0.00
2022-08-09T01:50:01.632Z,0.00
2022-08-09T01:51:00.616Z,0.00
2022-08-09T01:52:07.508Z,0.00
2022-08-09T01:53:01.594Z,0.00
2022-08-09T01:54:01.588Z,0.00
2022-08-09T01:55:00.572Z,0.00
2022-08-09T01:56:00.568Z,0.00
2022-08-09T01:57:04.247Z,0.00
2022-08-09T01:58:00.541Z,0.00
2022-08-09T01:59:00.529Z,0.00
2022-08-09T02:00:08.913Z,0.00
2022-08-09T02:01:01.577Z,0.00
2022-08-09T02:02:01.286Z,0.00
2022-08-09T02:03:00.485Z,0.00
2022-08-09T02:04:00.475Z,0.00
2022-08-09T02:05:04.640Z,0.00
2022-08-09T02:06:06.399Z,0.00
2022-08-09T02:07:02.616Z,0.00
2022-08-09T02:08:35.462Z,0.00
2022-08-09T02:09:01.419Z,0.00
2022-08-09T02:10:01.374Z,0.00
2022-08-09T02:11:00.398Z,0.00
2022-08-09T02:12:00.391Z,0.00
2022-08-09T02:13:00.385Z,0.00
2022-08-09T02:14:07.387Z,0.00
2022-08-09T02:15:01.354Z,0.00
2022-08-09T02:16:00.344Z,0.00
2022-08-09T02:17:15.502Z,0.00
2022-08-09T02:18:10.332Z,0.00
2022-08-09T02:19:01.311Z,0.00
2022-08-09T02:20:01.313Z,0.00
2022-08-09T02:21:00.433Z,0.00
2022-08-09T02:22:00.280Z,0.00
2022-08-09T02:23:00.270Z,0.00
2022-08-09T02:24:00.264Z,0.00
2022-08-09T02:25:00.247Z,0.00
2022-08-09T02:26:00.235Z,0.00
2022-08-09T02:27:00.227Z,0.00
2022-08-09T02:28:04.046Z,0.00
2022-08-09T02:29:01.211Z,0.00
2022-08-09T02:30:01.708Z,0.00
2022-08-09T02:31:00.181Z,0.00
2022-08-09T02:32:00.171Z,0.00
2022-08-09T02:33:00.162Z,0.00
2022-08-09T02:34:07.213Z,0.00
2022-08-09T02:35:01.160Z,0.00
2022-08-09T02:36:04.271Z,0.00
2022-08-09T02:37:00.116Z,0.00
2022-08-09T02:38:00.115Z,0.00
2022-08-09T02:39:00.102Z,0.00
2022-08-09T02:40:01.789Z,0.00
2022-08-09T02:41:00.093Z,0.00
2022-08-09T02:42:00.073Z,0.00
2022-08-09T02:43:00.186Z,0.00
2022-08-09T02:44:00.040Z,0.00
2022-08-09T02:45:01.029Z,0.00
2022-08-09T02:46:00.017Z,0.00
2022-08-09T02:47:00.015Z,0.00
2022-08-09T02:47:59.999Z,0.00
2022-08-09T02:48:59.991Z,0.00
2022-08-09T02:50:01.717Z,0.00
2022-08-09T02:51:02.407Z,0.00
2022-08-09T02:51:59.955Z,0.00
2022-08-09T02:52:59.975Z,0.00
2022-08-09T02:54:00.922Z,0.00
2022-08-09T02:54:59.920Z,0.00
2022-08-09T02:55:59.910Z,0.00
2022-08-09T02:56:59.901Z,0.00
2022-08-09T02:58:35.388Z,0.00
2022-08-09T02:59:00.878Z,0.00
2022-08-09T03:00:25.262Z,0.00
2022-08-09T03:01:04.239Z,0.00
2022-08-09T03:02:06.303Z,0.00
2022-08-09T03:03:00.941Z,0.00
2022-08-09T03:04:17.714Z,0.00
2022-08-09T03:05:00.831Z,0.00
2022-08-09T03:05:59.803Z,0.00
2022-08-09T03:07:12.484Z,0.00
2022-08-09T03:08:00.780Z,0.00
2022-08-09T03:08:59.769Z,0.00
2022-08-09T03:10:00.519Z,0.00
2022-08-09T03:11:00.137Z,0.00
2022-08-09T03:12:05.993Z,0.00
2022-08-09T03:13:00.724Z,0.00
2022-08-09T03:14:01.594Z,0.00
2022-08-09T03:14:59.704Z,0.00
2022-08-09T03:16:06.729Z,0.00
2022-08-09T03:17:01.517Z,0.00
2022-08-09T03:17:59.673Z,0.00
2022-08-09T03:19:01.628Z,0.00
2022-08-09T03:20:03.349Z,0.00
2022-08-09T03:21:00.660Z,4.00
2022-08-09T03:21:59.627Z,4.00
2022-08-09T03:23:05.541Z,4.00
2022-08-09T03:24:03.929Z,4.00
2022-08-09T03:25:05.842Z,0.00
2022-08-09T03:26:04.667Z,4.00
2022-08-09T03:26:59.605Z,4.00
2022-08-09T03:27:59.565Z,4.00
2022-08-09T03:28:59.553Z,4.00
2022-08-09T03:30:01.301Z,4.00
2022-08-09T03:30:59.534Z,8.00
2022-08-09T03:32:00.887Z,4.00
2022-08-09T03:32:59.508Z,4.00
2022-08-09T03:33:59.499Z,4.00
2022-08-09T03:34:59.488Z,4.00
2022-08-09T03:36:13.314Z,4.00
2022-08-09T03:37:02.482Z,8.00
2022-08-09T03:38:00.470Z,8.00
2022-08-09T03:38:59.444Z,8.00
2022-08-09T03:39:59.468Z,8.00
2022-08-09T03:40:59.423Z,8.00
2022-08-09T03:42:05.998Z,12.00
2022-08-09T03:43:00.401Z,12.00
2022-08-09T03:44:08.141Z,12.00
2022-08-09T03:45:00.378Z,12.00
2022-08-09T03:46:04.983Z,8.00
2022-08-09T03:47:00.393Z,12.00
2022-08-09T03:47:59.347Z,12.00
2022-08-09T03:48:59.337Z,12.00
2022-08-09T03:50:00.329Z,16.00
2022-08-09T03:50:59.314Z,16.00
2022-08-09T03:52:00.384Z,12.00
2022-08-09T03:52:59.293Z,16.00
2022-08-09T03:53:59.742Z,16.00
2022-08-09T03:54:59.271Z,16.00
2022-08-09T03:55:59.270Z,16.00
2022-08-09T03:56:59.275Z,16.00
2022-08-09T03:58:06.478Z,20.00
2022-08-09T03:59:00.226Z,16.00
2022-08-09T04:00:00.772Z,20.00
2022-08-09T04:00:59.289Z,20.00
2022-08-09T04:01:59.507Z,24.00
2022-08-09T04:02:59.183Z,24.00
2022-08-09T04:04:01.301Z,24.00
2022-08-09T04:04:59.282Z,28.00
2022-08-09T04:05:59.151Z,28.00
2022-08-09T04:06:59.139Z,28.00
2022-08-09T04:07:59.135Z,28.00
2022-08-09T04:08:59.119Z,32.00
2022-08-09T04:09:59.107Z,32.00
2022-08-09T04:11:01.395Z,36.00
2022-08-09T04:11:59.087Z,36.00
2022-08-09T04:13:01.309Z,36.00
2022-08-09T04:14:53.491Z,40.00
2022-08-09T04:15:02.482Z,40.00
2022-08-09T04:16:20.494Z,40.00
2022-08-09T04:17:00.030Z,48.00
2022-08-09T04:17:59.021Z,48.00
2022-08-09T04:18:59.403Z,52.00
2022-08-09T04:20:02.678Z,56.00
2022-08-09T04:20:58.989Z,56.00
2022-08-09T04:21:58.978Z,56.00
2022-08-09T04:22:59.238Z,60.00
2022-08-09T04:23:58.956Z,60.00
2022-08-09T04:24:58.945Z,64.00
2022-08-09T04:25:58.955Z,68.00
2022-08-09T04:26:58.923Z,68.00
2022-08-09T04:28:00.071Z,68.00
2022-08-09T04:29:01.365Z,72.00
2022-08-09T04:29:58.891Z,72.00
2022-08-09T04:32:14.586Z,80.00
2022-08-09T04:33:14.533Z,80.00
2022-08-09T04:34:14.525Z,84.00
2022-08-09T04:35:15.321Z,84.00
2022-08-09T04:36:14.500Z,88.00
2022-08-09T04:37:14.491Z,88.00
2022-08-09T04:38:14.486Z,96.00
2022-08-09T04:39:14.529Z,96.00
2022-08-09T04:40:19.691Z,100.00
2022-08-09T04:41:15.446Z,104.00
2022-08-09T04:42:15.896Z,112.00
2022-08-09T04:43:15.224Z,120.00
2022-08-09T04:44:14.912Z,128.00
2022-08-09T04:45:14.401Z,132.00
2022-08-09T04:46:19.378Z,136.00
2022-08-09T04:47:15.378Z,136.00
2022-08-09T04:48:14.368Z,140.00
2022-08-09T04:49:14.767Z,144.00
2022-08-09T04:50:14.366Z,152.00
2022-08-09T04:51:15.334Z,156.00
2022-08-09T04:52:18.639Z,164.00
2022-08-09T04:53:15.312Z,164.00
2022-08-09T04:54:14.302Z,164.00
2022-08-09T04:55:14.291Z,168.00
2022-08-09T04:56:14.286Z,172.00
2022-08-09T04:57:15.274Z,184.00
2022-08-09T04:58:15.264Z,192.00
2022-08-09T04:59:15.653Z,200.00
2022-08-09T05:00:14.236Z,204.00
2022-08-09T05:01:16.231Z,212.00
2022-08-09T05:02:14.221Z,212.00
2022-08-09T05:03:40.057Z,216.00
2022-08-09T05:04:15.236Z,220.00
2022-08-09T05:05:14.179Z,216.00
2022-08-09T05:06:21.732Z,220.00
2022-08-09T05:07:19.317Z,216.00
2022-08-09T05:08:15.126Z,220.00
2022-08-09T05:09:14.139Z,224.00
2022-08-09T05:10:14.126Z,236.00
2022-08-09T05:11:14.114Z,244.00
2022-08-09T05:12:14.103Z,252.00
2022-08-09T05:13:14.343Z,260.00
2022-08-09T05:14:14.600Z,264.00
2022-08-09T05:15:24.874Z,276.00
2022-08-09T05:16:15.156Z,280.00
2022-08-09T05:17:15.381Z,288.00
2022-08-09T05:18:38.047Z,296.00
2022-08-09T05:19:15.025Z,300.00
2022-08-09T05:20:14.016Z,304.00
2022-08-09T05:21:23.197Z,308.00
2022-08-09T05:22:36.242Z,312.00
2022-08-09T05:23:55.554Z,316.00
2022-08-09T05:24:14.978Z,320.00
2022-08-09T05:25:15.180Z,328.00
2022-08-09T05:26:22.279Z,336.00
2022-08-09T05:27:14.936Z,348.00
2022-08-09T05:28:13.925Z,356.00
2022-08-09T05:29:17.440Z,360.00
2022-08-09T05:30:13.925Z,368.00
2022-08-09T05:31:13.893Z,372.00
2022-08-09T05:32:13.923Z,380.00
2022-08-09T05:33:13.872Z,384.00
2022-08-09T05:34:16.619Z,392.00
2022-08-09T05:35:13.848Z,400.00
2022-08-09T05:36:15.560Z,408.00
2022-08-09T05:37:13.827Z,416.00
2022-08-09T05:38:21.793Z,420.00
2022-08-09T05:39:14.841Z,428.00
2022-08-09T05:40:14.908Z,432.00
2022-08-09T05:41:13.787Z,444.00
2022-08-09T05:42:17.840Z,456.00
2022-08-09T05:43:14.759Z,468.00
2022-08-09T05:44:13.751Z,476.00
2022-08-09T05:45:14.932Z,480.00
2022-08-09T05:46:13.727Z,476.00
2022-08-09T05:47:13.715Z,476.00
2022-08-09T05:48:13.720Z,476.00
2022-08-09T05:49:33.842Z,476.00
2022-08-09T05:50:29.980Z,480.00
2022-08-09T05:51:41.547Z,488.00
2022-08-09T05:52:14.660Z,492.00
2022-08-09T05:53:21.834Z,496.00
2022-08-09T05:54:14.645Z,500.00
2022-08-09T05:55:20.489Z,516.00
2022-08-09T05:56:16.286Z,528.00
2022-08-09T05:57:14.170Z,528.00
2022-08-09T05:58:18.484Z,532.00
2022-08-09T05:59:13.584Z,544.00
2022-08-09T06:00:13.579Z,548.00
2022-08-09T06:01:15.978Z,560.00
2022-08-09T06:02:22.204Z,568.00
2022-08-09T06:03:19.825Z,572.00
2022-08-09T06:04:14.574Z,588.00
2022-08-09T06:05:14.545Z,596.00
2022-08-09T06:06:13.507Z,608.00
2022-08-09T06:07:21.589Z,620.00
2022-08-09T06:08:19.304Z,632.00
2022-08-09T06:09:23.163Z,644.00
2022-08-09T06:10:15.805Z,652.00
2022-08-09T06:11:17.279Z,652.00
2022-08-09T06:12:13.440Z,652.00
2022-08-09T06:13:20.301Z,652.00
2022-08-09T06:14:14.418Z,644.00
2022-08-09T06:15:13.407Z,648.00
2022-08-09T06:16:13.395Z,656.00
2022-08-09T06:17:13.389Z,660.00
2022-08-09T06:18:13.373Z,656.00
2022-08-09T06:19:13.365Z,660.00
2022-08-09T06:20:13.353Z,660.00
2022-08-09T06:21:16.201Z,668.00
2022-08-09T06:22:14.970Z,672.00
2022-08-09T06:23:15.549Z,676.00
2022-08-09T06:24:13.309Z,676.00
2022-08-09T06:25:16.370Z,688.00
2022-08-09T06:26:13.286Z,696.00
2022-08-09T06:27:15.636Z,692.00
2022-08-09T06:28:13.751Z,684.00
2022-08-09T06:29:14.920Z,680.00
2022-08-09T06:30:13.963Z,680.00
2022-08-09T06:31:13.235Z,684.00
2022-08-09T06:32:53.110Z,692.00
2022-08-09T06:33:40.111Z,696.00
2022-08-09T06:34:14.218Z,696.00
2022-08-09T06:35:13.192Z,700.00
2022-08-09T06:36:13.779Z,712.00
2022-08-09T06:37:13.164Z,716.00
2022-08-09T06:38:13.153Z,728.00
2022-08-09T06:39:13.238Z,732.00
2022-08-09T06:40:13.161Z,728.00
2022-08-09T06:41:18.289Z,744.00
2022-08-09T06:42:14.108Z,748.00
2022-08-09T06:43:13.098Z,752.00
2022-08-09T06:44:13.087Z,764.00
2022-08-09T06:46:03.499Z,784.00
2022-08-09T06:46:39.704Z,764.00
2022-08-09T06:47:14.053Z,764.00
2022-08-09T06:48:16.678Z,740.00
2022-08-09T06:49:22.613Z,740.00
2022-08-09T06:50:19.020Z,740.00
2022-08-09T06:51:14.861Z,776.00
2022-08-09T06:52:15.823Z,764.00
2022-08-09T06:53:12.988Z,740.00
2022-08-09T06:54:14.933Z,740.00
2022-08-09T06:55:13.045Z,740.00
2022-08-09T06:56:12.954Z,732.00
2022-08-09T06:57:13.504Z,724.00
2022-08-09T07:00:47.166Z,716.00
2022-08-09T07:00:55.528Z,704.00
2022-08-09T07:00:56.139Z,688.00
2022-08-09T07:01:13.971Z,680.00
2022-08-09T07:02:12.914Z,668.00
2022-08-09T07:03:12.885Z,664.00
2022-08-09T07:04:20.093Z,664.00
2022-08-09T07:05:13.854Z,672.00
2022-08-09T07:06:12.845Z,684.00
2022-08-09T07:08:00.504Z,704.00
2022-08-09T07:08:13.827Z,728.00
2022-08-09T07:09:55.012Z,748.00
2022-08-09T07:10:22.404Z,748.00
2022-08-09T07:11:17.692Z,744.00
2022-08-09T07:12:17.866Z,744.00
2022-08-09T07:13:27.626Z,740.00
2022-08-09T07:14:13.789Z,736.00
2022-08-09T07:16:38.866Z,732.00
2022-08-09T07:16:41.121Z,728.00
2022-08-09T07:17:13.724Z,720.00
2022-08-09T07:18:14.312Z,716.00
2022-08-09T07:19:15.769Z,712.00
2022-08-09T07:20:13.695Z,708.00
2022-08-09T07:21:12.680Z,712.00
2022-08-09T07:22:12.670Z,732.00
2022-08-09T07:23:18.689Z,752.00
2022-08-09T07:24:13.645Z,772.00
2022-08-09T07:25:12.641Z,776.00
2022-08-09T07:26:12.630Z,780.00
2022-08-09T07:27:33.494Z,760.00
2022-08-09T07:28:19.120Z,748.00
2022-08-09T07:29:13.738Z,720.00
2022-08-09T07:30:12.579Z,708.00
2022-08-09T07:31:12.568Z,688.00
2022-08-09T07:32:12.650Z,668.00
2022-08-09T07:33:16.542Z,652.00
2022-08-09T07:34:20.683Z,640.00
2022-08-09T07:35:14.846Z,620.00
2022-08-09T07:36:12.513Z,604.00
2022-08-09T07:37:15.776Z,596.00
2022-08-09T07:38:12.511Z,584.00
2022-08-09T07:39:12.518Z,580.00
2022-08-09T07:40:13.648Z,580.00
2022-08-09T07:41:13.041Z,572.00
2022-08-09T07:42:12.447Z,576.00
2022-08-09T07:43:16.532Z,576.00
2022-08-09T07:44:12.431Z,584.00
2022-08-09T07:45:22.662Z,640.00
2022-08-09T07:46:17.278Z,660.00
2022-08-09T07:47:13.392Z,660.00
2022-08-09T07:48:25.409Z,640.00
2022-08-09T07:49:15.308Z,616.00
2022-08-09T07:50:12.358Z,592.00
2022-08-09T07:52:05.255Z,592.00
2022-08-09T07:52:16.830Z,600.00
2022-08-09T07:53:12.326Z,608.00
2022-08-09T07:54:12.317Z,628.00
2022-08-09T07:55:12.314Z,636.00
2022-08-09T07:56:26.800Z,708.00
2022-08-09T07:57:13.280Z,720.00
2022-08-09T07:58:13.103Z,720.00
2022-08-09T07:59:15.986Z,748.00
2022-08-09T08:00:13.254Z,716.00
2022-08-09T08:01:13.237Z,744.00
2022-08-09T08:02:16.714Z,756.00
2022-08-09T08:03:13.214Z,760.00
2022-08-09T08:04:12.206Z,780.00
2022-08-09T08:05:18.686Z,788.00
2022-08-09T08:06:14.368Z,780.00
2022-08-09T08:07:57.107Z,780.00
2022-08-09T08:09:00.981Z,776.00
2022-08-09T08:09:34.486Z,772.00
2022-08-09T08:10:13.139Z,796.00
2022-08-09T08:12:09.163Z,784.00
2022-08-09T08:12:27.594Z,796.00
2022-08-09T08:13:13.105Z,844.00
2022-08-09T08:14:12.094Z,868.00
2022-08-09T08:15:12.083Z,888.00
2022-08-09T08:16:29.983Z,904.00
2022-08-09T08:17:14.147Z,916.00
2022-08-09T08:18:14.312Z,936.00
2022-08-09T08:19:12.046Z,948.00
2022-08-09T08:20:13.018Z,960.00
2022-08-09T08:21:12.017Z,980.00
2022-08-09T08:22:12.006Z,1000.00
2022-08-09T08:23:17.402Z,1020.00
2022-08-09T08:24:16.591Z,1040.00
2022-08-09T08:25:13.554Z,1052.00
2022-08-09T08:26:11.962Z,1048.00
2022-08-09T08:27:17.194Z,1068.00
2022-08-09T08:28:14.390Z,1104.00
2022-08-09T08:29:11.933Z,1144.00
2022-08-09T08:30:11.943Z,1200.00
2022-08-09T08:31:14.847Z,1276.00
2022-08-09T08:32:12.422Z,1372.00
2022-08-09T08:33:23.754Z,1456.00
2022-08-09T08:34:13.969Z,1536.00
2022-08-09T08:35:11.863Z,1644.00
2022-08-09T08:36:12.857Z,1732.00
2022-08-09T08:37:15.531Z,1804.00
2022-08-09T08:38:12.076Z,1820.00
2022-08-09T08:39:11.888Z,1768.00
2022-08-09T08:40:11.808Z,1708.00
2022-08-09T08:41:11.796Z,1652.00
2022-08-09T08:42:11.807Z,1612.00
2022-08-09T08:43:13.629Z,1580.00
2022-08-09T08:44:13.886Z,1564.00
2022-08-09T08:45:13.736Z,1532.00
2022-08-09T08:46:32.445Z,1512.00
2022-08-09T08:47:13.515Z,1464.00
2022-08-09T08:48:11.719Z,1360.00
2022-08-09T08:49:12.987Z,1300.00
2022-08-09T08:50:12.698Z,1328.00
2022-08-09T08:51:11.687Z,1284.00
2022-08-09T08:52:29.373Z,1192.00
2022-08-09T08:53:16.011Z,1144.00
2022-08-09T08:54:20.615Z,1140.00
2022-08-09T08:55:13.591Z,1132.00
2022-08-09T08:56:16.872Z,1112.00
2022-08-09T08:57:12.619Z,1088.00
2022-08-09T08:58:11.610Z,1100.00
2022-08-09T08:59:19.064Z,1132.00
2022-08-09T09:00:17.071Z,1176.00
2022-08-09T09:01:20.962Z,1220.00
2022-08-09T09:02:12.623Z,1236.00
2022-08-09T09:03:23.013Z,1400.00
2022-08-09T09:04:12.549Z,1248.00
2022-08-09T09:05:12.111Z,1336.00
2022-08-09T09:06:11.521Z,1292.00
2022-08-09T09:07:11.510Z,1544.00
2022-08-09T09:08:31.042Z,1420.00
2022-08-09T09:09:21.218Z,1652.00
2022-08-09T09:10:12.481Z,1688.00
2022-08-09T09:11:13.510Z,1740.00
2022-08-09T09:12:16.725Z,1728.00
2022-08-09T09:13:11.666Z,1756.00
2022-08-09T09:14:11.435Z,1756.00
2022-08-09T09:15:12.142Z,1744.00
2022-08-09T09:16:12.416Z,1704.00
2022-08-09T09:17:11.413Z,1652.00
2022-08-09T09:18:12.390Z,1600.00
2022-08-09T09:19:37.021Z,1576.00
2022-08-09T09:20:14.755Z,1564.00
2022-08-09T09:21:11.357Z,1552.00
2022-08-09T09:22:12.515Z,1520.00
2022-08-09T09:23:14.185Z,1496.00
2022-08-09T09:24:21.433Z,1460.00
2022-08-09T09:26:01.083Z,1424.00
2022-08-09T09:26:12.785Z,1384.00
2022-08-09T09:28:03.954Z,1344.00
2022-08-09T09:28:12.284Z,1324.00
2022-08-09T09:29:17.178Z,1328.00
2022-08-09T09:30:27.455Z,1324.00
2022-08-09T09:31:17.713Z,1328.00
2022-08-09T09:32:16.471Z,1344.00
2022-08-09T09:33:15.683Z,1340.00
2022-08-09T09:34:14.255Z,1348.00
2022-08-09T09:35:15.666Z,1368.00
2022-08-09T09:36:19.837Z,1384.00
2022-08-09T09:37:13.002Z,1384.00
2022-08-09T09:38:18.389Z,1388.00
2022-08-09T09:39:12.224Z,1400.00
2022-08-09T09:40:11.646Z,1408.00
2022-08-09T09:41:11.137Z,1412.00
2022-08-09T09:42:11.124Z,1420.00
2022-08-09T09:43:11.115Z,1428.00
2022-08-09T09:44:15.255Z,1436.00
2022-08-09T09:45:14.505Z,1444.00
2022-08-09T09:47:12.068Z,1460.00
2022-08-09T09:48:11.063Z,1456.00
2022-08-09T09:49:11.048Z,1452.00
2022-08-09T09:50:15.849Z,1452.00
2022-08-09T09:51:12.031Z,1452.00
2022-08-09T09:52:33.236Z,1456.00
2022-08-09T09:53:12.004Z,1468.00
2022-08-09T09:54:18.059Z,1480.00
2022-08-09T09:55:24.110Z,1492.00
2022-08-09T09:56:19.740Z,1508.00
2022-08-09T09:58:02.472Z,1520.00
2022-08-09T09:58:18.585Z,1536.00
2022-08-09T09:59:11.937Z,1544.00
2022-08-09T10:00:10.926Z,1552.00
2022-08-09T10:01:37.276Z,1560.00
2022-08-09T10:02:11.916Z,1572.00
2022-08-09T10:03:14.029Z,1576.00
2022-08-09T10:04:10.986Z,1588.00
2022-08-09T10:05:10.871Z,1600.00
2022-08-09T10:06:11.758Z,1612.00
2022-08-09T10:07:10.849Z,1628.00
2022-08-09T10:08:28.118Z,1636.00
2022-08-09T10:09:23.124Z,1656.00
2022-08-09T10:10:11.815Z,1668.00
2022-08-09T10:11:53.601Z,1696.00
2022-08-09T10:12:27.853Z,1720.00
2022-08-09T10:13:11.782Z,1736.00
2022-08-09T10:14:11.774Z,1732.00
2022-08-09T10:15:10.809Z,1748.00
2022-08-09T10:16:56.541Z,1752.00
2022-08-09T10:17:24.334Z,1768.00
2022-08-09T10:18:11.742Z,1772.00
2022-08-09T10:19:10.717Z,1780.00
2022-08-09T10:20:14.956Z,1784.00
2022-08-09T10:21:10.725Z,1788.00
2022-08-09T10:22:10.684Z,1780.00
2022-08-09T10:23:10.673Z,1780.00
2022-08-09T10:24:16.084Z,1780.00
2022-08-09T10:25:14.221Z,1772.00
2022-08-09T10:26:10.984Z,1824.00
2022-08-09T10:27:17.129Z,1828.00
2022-08-09T10:28:11.617Z,1844.00
2022-08-09T10:29:37.591Z,1884.00
2022-08-09T10:31:37.789Z,1888.00
2022-08-09T10:32:38.178Z,1908.00
2022-08-09T10:33:29.847Z,1924.00
2022-08-09T10:34:19.095Z,1948.00
2022-08-09T10:35:13.273Z,1980.00
2022-08-09T10:36:12.232Z,1972.00
2022-08-09T10:37:13.817Z,1952.00
2022-08-09T10:38:33.849Z,1952.00
2022-08-09T10:39:16.232Z,1964.00
2022-08-09T10:40:12.241Z,1980.00
2022-08-09T10:41:11.473Z,2000.00
2022-08-09T10:42:10.463Z,2020.00
2022-08-09T10:43:10.454Z,2044.00
2022-08-09T10:44:10.449Z,2056.00
2022-08-09T10:45:12.083Z,2064.00
2022-08-09T10:46:15.975Z,2060.00
2022-08-09T10:48:12.678Z,2096.00
2022-08-09T10:48:17.495Z,2116.00
2022-08-09T10:49:11.411Z,2092.00
2022-08-09T10:50:14.598Z,2076.00
2022-08-09T10:51:10.364Z,2076.00
2022-08-09T10:52:13.462Z,2084.00
2022-08-09T10:53:11.344Z,2104.00
2022-08-09T10:54:12.435Z,2116.00
2022-08-09T10:55:10.326Z,2120.00
2022-08-09T10:56:10.310Z,2140.00
2022-08-09T10:57:10.297Z,2148.00
2022-08-09T10:58:13.190Z,2164.00
2022-08-09T10:59:11.274Z,2172.00
2022-08-09T11:00:10.265Z,2164.00
2022-08-09T11:03:06.398Z,2164.00
2022-08-09T11:03:18.328Z,2172.00
2022-08-09T11:03:50.529Z,2176.00
2022-08-09T11:04:19.750Z,2180.00
2022-08-09T11:05:11.282Z,2208.00
2022-08-09T11:06:11.213Z,2240.00
2022-08-09T11:07:10.188Z,2244.00
2022-08-09T11:08:10.176Z,2304.00
2022-08-09T11:09:15.970Z,2352.00
2022-08-09T11:10:11.153Z,2428.00
2022-08-09T11:11:10.144Z,2484.00
2022-08-09T11:12:10.137Z,2548.00
2022-08-09T11:13:10.122Z,2588.00
2022-08-09T11:14:10.111Z,2556.00
2022-08-09T11:15:15.396Z,2404.00
2022-08-09T11:16:11.087Z,2676.00
2022-08-09T11:17:10.076Z,2828.00
2022-08-09T11:18:10.080Z,2452.00
2022-08-09T11:19:11.265Z,2224.00
2022-08-09T11:20:22.773Z,2052.00
2022-08-09T11:21:11.033Z,2068.00
2022-08-09T11:22:24.358Z,2064.00
2022-08-09T11:23:11.026Z,2280.00
2022-08-09T11:24:10.000Z,2528.00
2022-08-09T11:25:10.378Z,2196.00
2022-08-09T11:26:09.980Z,2388.00
2022-08-09T11:27:09.967Z,2808.00
2022-08-09T11:28:33.768Z,2848.00
2022-08-09T11:29:10.976Z,2832.00
2022-08-09T11:30:32.954Z,3264.00
2022-08-09T11:31:10.931Z,3076.00
2022-08-09T11:32:09.912Z,2568.00
2022-08-09T11:33:10.495Z,2900.00
2022-08-09T11:34:09.897Z,2580.00
2022-08-09T11:35:09.884Z,3248.00
2022-08-09T11:36:09.870Z,3308.00
2022-08-09T11:37:18.319Z,3440.00
2022-08-09T11:38:10.847Z,3436.00
2022-08-09T11:39:11.107Z,3264.00
2022-08-09T11:40:09.823Z,3224.00
2022-08-09T11:41:09.819Z,3228.00
2022-08-09T11:42:14.514Z,3272.00
2022-08-09T11:43:10.791Z,3236.00
2022-08-09T11:44:09.797Z,3524.00
2022-08-09T11:45:09.869Z,10052.00
2022-08-09T11:46:09.758Z,20896.00
2022-08-09T11:47:10.946Z,33952.00
2022-08-09T11:48:17.510Z,43232.00
2022-08-09T11:49:17.058Z,38848.00
2022-08-09T11:50:56.414Z,21888.00
2022-08-09T11:53:02.972Z,11096.00
2022-08-09T11:53:03.131Z,4352.00
2022-08-09T11:53:55.146Z,3412.00
2022-08-09T11:54:12.982Z,3336.00
2022-08-09T11:55:09.660Z,3484.00
2022-08-09T11:56:09.650Z,2732.00
2022-08-09T11:57:09.640Z,2708.00
2022-08-09T11:58:09.635Z,3940.00
2022-08-09T11:59:09.616Z,2520.00
2022-08-09T12:00:15.873Z,2196.00
2022-08-09T12:01:15.647Z,2124.00
2022-08-09T12:02:34.325Z,2744.00
2022-08-09T12:03:55.981Z,2528.00
2022-08-09T12:04:20.806Z,3072.00
2022-08-09T12:05:17.240Z,3484.00
2022-08-09T12:06:10.539Z,2920.00
2022-08-09T12:07:09.531Z,3240.00
2022-08-09T12:08:12.339Z,3856.00
2022-08-09T12:09:19.066Z,2868.00
2022-08-09T12:10:32.029Z,2700.00
2022-08-09T12:11:12.677Z,2676.00
2022-08-09T12:12:12.938Z,3076.00
2022-08-09T12:14:10.711Z,3404.00
2022-08-09T12:14:28.570Z,3356.00
2022-08-09T12:15:10.448Z,3416.00
2022-08-09T12:16:18.769Z,3448.00
2022-08-09T12:17:28.348Z,3356.00
2022-08-09T12:18:10.408Z,3228.00
2022-08-09T12:19:11.334Z,3264.00
2022-08-09T12:20:09.388Z,3268.00
2022-08-09T12:21:11.051Z,3348.00
2022-08-09T12:22:10.404Z,3504.00
2022-08-09T12:23:09.357Z,3588.00
2022-08-09T12:24:10.039Z,3684.00
2022-08-09T12:25:09.334Z,3600.00
2022-08-09T12:26:09.324Z,3668.00
2022-08-09T12:28:58.591Z,2936.00
2022-08-09T12:28:59.682Z,3788.00
2022-08-09T12:29:29.940Z,3212.00
2022-08-09T12:30:36.829Z,4096.00
2022-08-09T12:31:11.075Z,4140.00
2022-08-09T12:32:10.274Z,3932.00
2022-08-09T12:33:09.246Z,3760.00
2022-08-09T12:34:09.236Z,3640.00
2022-08-09T12:35:10.822Z,3684.00
2022-08-09T12:36:27.751Z,3772.00
2022-08-09T12:37:24.184Z,4044.00
2022-08-09T12:38:10.208Z,3100.00